Aldea Protestante, Argentina
Current Conditions -  °F | °C
As of 4:00 PM on Saturday 20 Dec 2014 (Local Time) from SAAR Reporting Station
Broken Clouds Broken Clouds  
Wind Chill: 75°   Ceiling: 10000
Heat Index: 75°   Visibility: 6mi
Dew Point: 64°   Wind: 15mph
Humidity: 69%   Direction: 180°S
Pressure: 29.53"   Gusts: NA
Location:  31.99°S, 60.59°W
Report Text: SAAR 201900Z 18013KT 9999 SCT020 BKN10024/18 Q1000
Loading
Personal Weather Stations






























Interactive Weather Map New forecast layout! Learn more

10-Day Weather Forecast

Advertisements
Track Severe Weather on mobile